Stillwater, OK

2:22 AM CDT on July 24, 2014 (GMT -0500)
Stillwater, East Side (KOKSTILL4) Elev 935 ft | 36.12 °N, 97.04 °W | Change Station

Current weather conditions updated 7 seconds ago

Clear
Clear
71.7 °F
Feels Like 71.7 °F
N
0.0
Wind Variable Wind from NNE
Gusts 0.0 mph

Today is forecast to be nearly the same temperature as yesterday.

Today
High -- | Low -- °F
--% Chance of Precip.
Yesterday
High -- | Low -- °F
Precip. -- in
6:29 AM 8:39 PM
Waning Crescent, 6% visible
Pressure 30.03 in
Visibility 10.0 miles
Clouds Clear
Dew Point 69 °F
Humidity 92%
Rainfall 0.00 in
Snow Depth Not available.
UV 0.0 out of 12
Pollen 4.80 out of 12
Air Quality Not available.
Flu Activity Not available.
METAR KSWO 240653Z AUTO 00000KT 10SM CLR 21/19 A3007 RMK AO2 SLP169 T02060194

More Conditions Fewer Conditions

Pressure 30.03 in
Visibility 10.0 miles
Clouds Clear
Dew Point 69 °F
Humidity 92%
Rainfall 0.00 in
Snow Depth Not available.
UV 0.0 out of 12
Pollen 4.80 out of 12
Air Quality Not available.
Flu Activity Not available.
METAR KSWO 240653Z AUTO 00000KT 10SM CLR 21/19 A3007 RMK AO2 SLP169 T02060194

More Conditions Fewer Conditions

10-Day Weather Forecast

Almanac

Astronomy

Jul. 24, 2014 Rise Set
Actual Time 6:29 AM CDT 8:39 PM CDT
Civil Twilight 6:00 AM CDT 9:08 PM CDT
Nautical Twilight 5:25 AM CDT 9:44 PM CDT
Astronomical Twilight 4:46 AM CDT 10:22 PM CDT
Moon 4:37 AM CDT 6:56 PM CDT
Length of Visible Light 15h 08m
Length of Day
14h 10m
Tomorrow will be 1m 29s shorter.
Waning Crescent, 6% of the Moon is Illuminated
Today
Waning Crescent
Jul 26
New
Aug 3
First Quarter
Aug 10
Full
Aug 17
Last Quarter

Today's Extremes

State Highs State Lows

Community

WunderPhotos

Upload Photos

1,736,950 photos uploaded!

Nearby

Snow Depth

Station Depth Elevation
No new snow has been reported.

Earthquake Activity

City Distance Mag. Time & Date
Harper, Kansas 90 miles 3.0 7:24 PM CDT
2014-07-19
Spencer, Oklahoma 39 miles 2.7 4:56 PM CDT
2014-07-18
Helena, Oklahoma 70 miles 3.2 8:41 AM CDT
2014-07-18
Guthrie, Oklahoma 21 miles 2.9 8:59 PM CDT
2014-07-17
Minimum magnitude displayed is 2.5.

Coastal Water Temperatures

Place Temperature
No Stations Reporting

Nearby Weather Stations

Station Location Temp. Dew Point Humidity Wind Precip. Elev Updated Type
Stillwater, East Side, Stillwater, OK 71.7 °F 69 °F 92% NNE  at  0.0 mph 0.00 in / hr 935 ft 2:22 AM CDT Rapid Fire
West of Stillwater, Stillwater, OK 70.7 °F 68 °F 92% ESE  at  0.0 mph 0.00 in / hr 1004 ft 2:22 AM CDT Normal
6 mi. S (Ham Radio KC5DPT), Stillwater, OK 70.5 °F 68 °F 92% ENE  at  0.0 mph 0.00 in / hr 938 ft 2:22 AM CDT Rapid Fire
Western Heights, Yale, OK 69.0 °F 68 °F 97% North  at  4.0 mph 0.00 in / hr 886 ft 2:20 AM CDT Normal
Near Antelope Creek, Guthrie, OK 70.9 °F 70 °F 97% North  at  0.0 mph 0.00 in / hr 1109 ft 2:22 AM CDT Rapid Fire
NE of town, Guthrie, OK 72.0 °F 69 °F 90% ESE  at  0.0 mph 0.00 in / hr 1115 ft 2:22 AM CDT Rapid Fire

Show More Stations Show Fewer Stations